createdAt,value
2022-11-19T00:01:35.303Z,1.23
2022-11-19T00:04:03.068Z,0.90
2022-11-19T00:06:30.772Z,0.90
2022-11-19T00:08:58.442Z,1.27
2022-11-19T00:11:41.805Z,1.47
2022-11-19T00:14:12.380Z,1.07
2022-11-19T00:16:40.233Z,1.20
2022-11-19T00:19:09.367Z,1.00
2022-11-19T00:21:37.148Z,0.80
2022-11-19T00:24:05.152Z,1.10
2022-11-19T00:26:32.980Z,0.80
2022-11-19T00:29:00.669Z,1.10
2022-11-19T00:31:29.749Z,0.73
2022-11-19T00:33:57.425Z,0.73
2022-11-19T00:36:25.176Z,0.90
2022-11-19T00:38:52.890Z,1.10
2022-11-19T00:41:20.599Z,1.17
2022-11-19T00:43:48.877Z,1.33
2022-11-19T00:46:18.706Z,1.30
2022-11-19T00:48:48.880Z,1.30
2022-11-19T00:51:17.874Z,1.30
2022-11-19T00:53:45.672Z,2.30
2022-11-19T00:56:15.343Z,1.63
2022-11-19T00:58:43.639Z,1.57
2022-11-19T01:01:12.795Z,1.73
2022-11-19T01:03:42.288Z,1.90
2022-11-19T01:06:14.237Z,2.33
2022-11-19T01:08:46.113Z,1.70
2022-11-19T01:11:16.358Z,2.47
2022-11-19T01:13:44.181Z,1.87
2022-11-19T01:16:13.431Z,1.87
2022-11-19T01:18:42.364Z,2.33
2022-11-19T01:21:13.317Z,2.10
2022-11-19T01:23:42.709Z,2.20
2022-11-19T01:26:11.756Z,2.00
2022-11-19T01:28:39.679Z,2.63
2022-11-19T01:31:08.896Z,2.10
2022-11-19T01:33:36.812Z,3.00
2022-11-19T01:36:07.006Z,2.30
2022-11-19T01:38:36.175Z,2.53
2022-11-19T01:41:04.725Z,2.60
2022-11-19T01:43:44.940Z,2.50
2022-11-19T01:46:14.416Z,2.67
2022-11-19T01:48:46.423Z,2.23
2022-11-19T01:51:18.059Z,2.07
2022-11-19T01:53:50.560Z,3.37
2022-11-19T01:56:21.929Z,2.90
2022-11-19T01:58:54.502Z,2.17
2022-11-19T02:01:23.557Z,2.30
2022-11-19T02:03:53.336Z,2.53
2022-11-19T02:06:21.167Z,2.60
2022-11-19T02:08:51.523Z,2.47
2022-11-19T02:11:51.639Z,2.23
2022-11-19T02:14:33.415Z,2.70
2022-11-19T02:17:11.981Z,2.97
2022-11-19T02:20:34.063Z,2.93
2022-11-19T02:23:50.366Z,2.90
2022-11-19T02:26:50.054Z,2.80
2022-11-19T02:29:30.822Z,2.03
2022-11-19T02:32:03.225Z,2.73
2022-11-19T02:34:38.956Z,2.57
2022-11-19T02:37:13.539Z,2.73
2022-11-19T02:39:44.848Z,2.50
2022-11-19T02:42:19.608Z,3.10
2022-11-19T02:45:02.461Z,2.70
2022-11-19T02:47:36.440Z,2.40
2022-11-19T02:50:10.648Z,2.37
2022-11-19T02:52:43.778Z,2.10
2022-11-19T02:55:13.296Z,2.27
2022-11-19T02:57:43.215Z,3.23
2022-11-19T03:00:29.919Z,2.70
2022-11-19T03:03:21.334Z,2.30
2022-11-19T03:05:52.975Z,1.67
2022-11-19T03:08:21.061Z,1.87
2022-11-19T03:10:56.312Z,2.13
2022-11-19T03:13:45.457Z,1.90
2022-11-19T03:16:36.574Z,2.00
2022-11-19T03:19:11.288Z,1.80
2022-11-19T03:21:43.329Z,1.70
2022-11-19T03:24:15.420Z,1.80
2022-11-19T03:26:48.893Z,1.83
2022-11-19T03:29:17.572Z,2.03
2022-11-19T03:31:50.245Z,1.40
2022-11-19T03:34:23.055Z,1.73
2022-11-19T03:36:55.046Z,1.40
2022-11-19T03:39:24.043Z,1.37
2022-11-19T03:41:54.416Z,1.70
2022-11-19T03:44:28.150Z,1.40
2022-11-19T03:47:01.763Z,1.30
2022-11-19T03:49:34.735Z,1.30
2022-11-19T03:52:07.621Z,1.10
2022-11-19T03:54:35.460Z,1.10
2022-11-19T03:57:04.406Z,1.43
2022-11-19T03:59:32.286Z,1.33
2022-11-19T04:02:03.113Z,1.30
2022-11-19T04:04:38.035Z,1.00
2022-11-19T04:07:08.334Z,1.47
2022-11-19T04:09:36.509Z,1.30
2022-11-19T04:12:04.758Z,1.10
2022-11-19T04:14:32.531Z,1.20
2022-11-19T04:17:00.398Z,1.47
2022-11-19T04:19:28.041Z,1.20
2022-11-19T04:21:57.104Z,1.00
2022-11-19T04:24:24.800Z,1.37
2022-11-19T04:26:52.688Z,1.03
2022-11-19T04:29:20.673Z,1.03
2022-11-19T04:31:48.555Z,1.37
2022-11-19T04:34:16.254Z,1.50
2022-11-19T04:36:43.935Z,0.83
2022-11-19T04:39:13.335Z,0.80
2022-11-19T04:41:41.574Z,1.27
2022-11-19T04:44:09.388Z,0.90
2022-11-19T04:46:37.063Z,1.40
2022-11-19T04:49:05.044Z,0.90
2022-11-19T04:51:32.724Z,1.30
2022-11-19T04:54:00.461Z,1.07
2022-11-19T04:56:29.566Z,1.30
2022-11-19T04:58:57.484Z,0.87
2022-11-19T05:01:25.194Z,1.03
2022-11-19T05:03:53.025Z,1.30
2022-11-19T05:06:20.715Z,1.03
2022-11-19T05:08:48.374Z,1.73
2022-11-19T05:11:16.065Z,1.00
2022-11-19T05:13:45.111Z,1.23
2022-11-19T05:16:12.845Z,1.13
2022-11-19T05:18:40.516Z,1.10
2022-11-19T05:21:08.389Z,1.07
2022-11-19T05:23:36.303Z,1.03
2022-11-19T05:26:04.007Z,1.20
2022-11-19T05:28:38.877Z,1.27
2022-11-19T05:31:09.207Z,0.93
2022-11-19T05:33:36.923Z,1.10
2022-11-19T05:36:05.043Z,1.13
2022-11-19T05:38:32.860Z,0.87
2022-11-19T05:41:00.513Z,0.93
2022-11-19T05:43:28.201Z,1.10
2022-11-19T05:45:55.859Z,0.90
2022-11-19T05:48:24.852Z,0.80
2022-11-19T05:50:52.548Z,1.37
2022-11-19T05:53:20.255Z,0.97
2022-11-19T05:55:47.982Z,1.10
2022-11-19T05:58:15.640Z,0.90
2022-11-19T06:00:43.484Z,1.20
2022-11-19T06:03:11.960Z,0.93
2022-11-19T06:05:41.037Z,1.17
2022-11-19T06:08:09.019Z,1.00
2022-11-19T06:10:36.812Z,1.70
2022-11-19T06:13:04.557Z,1.33
2022-11-19T06:15:32.225Z,1.30
2022-11-19T06:17:59.900Z,1.40
2022-11-19T06:20:27.659Z,1.13
2022-11-19T06:22:56.724Z,1.30
2022-11-19T06:25:24.643Z,1.43
2022-11-19T06:27:52.317Z,1.40
2022-11-19T06:30:19.997Z,1.73
2022-11-19T06:32:47.694Z,1.47
2022-11-19T06:35:15.419Z,1.20
2022-11-19T06:37:43.069Z,1.40
2022-11-19T06:40:13.903Z,1.17
2022-11-19T06:42:41.608Z,1.37
2022-11-19T06:45:11.960Z,1.20
2022-11-19T06:47:40.675Z,1.10
2022-11-19T06:50:10.759Z,1.50
2022-11-19T06:52:38.620Z,1.33
2022-11-19T06:55:07.376Z,1.17
2022-11-19T06:57:36.463Z,1.50
2022-11-19T07:00:04.944Z,1.30
2022-11-19T07:02:32.673Z,1.20
2022-11-19T07:05:00.340Z,0.87
2022-11-19T07:07:28.520Z,0.80
2022-11-19T07:09:56.336Z,1.07
2022-11-19T07:12:24.041Z,1.10
2022-11-19T07:14:53.011Z,1.20
2022-11-19T07:17:20.657Z,0.83
2022-11-19T07:19:48.358Z,1.33
2022-11-19T07:22:16.269Z,1.00
2022-11-19T07:24:44.831Z,0.90
2022-11-19T07:27:12.493Z,1.00
2022-11-19T07:29:40.197Z,0.90
2022-11-19T07:32:09.639Z,0.90
2022-11-19T07:34:37.240Z,0.90
2022-11-19T07:37:04.958Z,0.70
2022-11-19T07:39:32.658Z,1.33
2022-11-19T07:42:17.912Z,1.00
2022-11-19T07:44:47.195Z,1.77
2022-11-19T07:47:17.812Z,1.50
2022-11-19T07:49:45.467Z,1.37
2022-11-19T07:52:13.149Z,1.10
2022-11-19T07:54:40.964Z,1.10
2022-11-19T07:57:08.992Z,1.10
2022-11-19T07:59:36.647Z,2.00
2022-11-19T08:02:04.415Z,1.30
2022-11-19T08:04:33.532Z,1.40
2022-11-19T08:07:02.786Z,0.93
2022-11-19T08:09:30.549Z,1.10
2022-11-19T08:11:58.489Z,1.23
2022-11-19T08:14:26.373Z,1.17
2022-11-19T08:17:23.192Z,1.00
2022-11-19T08:19:52.186Z,0.93
2022-11-19T08:22:19.839Z,1.00
2022-11-19T08:24:47.493Z,0.80
2022-11-19T08:27:15.154Z,1.40
2022-11-19T08:29:42.813Z,1.07
2022-11-19T08:32:10.467Z,1.33
2022-11-19T08:34:38.110Z,1.27
2022-11-19T08:37:07.548Z,1.23
2022-11-19T08:39:35.228Z,1.10
2022-11-19T08:42:20.387Z,1.37
2022-11-19T08:44:48.043Z,0.80
2022-11-19T08:47:15.731Z,0.77
2022-11-19T08:49:43.427Z,0.80
2022-11-19T08:52:12.406Z,1.67
2022-11-19T08:54:40.046Z,2.13
2022-11-19T08:57:07.684Z,1.57
2022-11-19T08:59:35.948Z,1.40
2022-11-19T09:02:03.674Z,1.13
2022-11-19T09:04:31.424Z,1.77
2022-11-19T09:06:59.130Z,1.50
2022-11-19T09:09:28.201Z,1.47
2022-11-19T09:11:56.312Z,1.30
2022-11-19T09:14:23.972Z,1.10
2022-11-19T09:16:51.612Z,1.50
2022-11-19T09:19:19.403Z,1.10
2022-11-19T09:21:47.099Z,1.33
2022-11-19T09:24:14.808Z,1.33
2022-11-19T09:26:46.567Z,1.90
2022-11-19T09:29:17.992Z,1.73
2022-11-19T09:31:45.648Z,0.80
2022-11-19T09:34:13.296Z,0.90
2022-11-19T09:36:40.966Z,1.30
2022-11-19T09:39:08.623Z,1.03
2022-11-19T09:41:51.022Z,0.90
2022-11-19T09:44:33.553Z,1.50
2022-11-19T09:47:10.855Z,1.07
2022-11-19T09:49:45.092Z,1.20
2022-11-19T09:52:16.772Z,0.87
2022-11-19T09:54:49.340Z,0.80
2022-11-19T09:57:24.934Z,1.13
2022-11-19T09:59:56.496Z,1.10
2022-11-19T10:02:24.768Z,0.90
2022-11-19T10:04:53.512Z,0.77
2022-11-19T10:07:37.477Z,1.00
2022-11-19T10:10:21.395Z,0.60
2022-11-19T10:13:13.223Z,1.00
2022-11-19T10:16:02.417Z,1.10
2022-11-19T10:18:38.906Z,1.30
2022-11-19T10:21:12.337Z,0.87
2022-11-19T10:23:49.327Z,1.17
2022-11-19T10:26:19.311Z,1.63
2022-11-19T10:28:56.105Z,1.10
2022-11-19T10:31:30.356Z,1.20
2022-11-19T10:34:04.477Z,0.97
2022-11-19T10:36:37.903Z,1.13
2022-11-19T10:39:14.681Z,1.10
2022-11-19T10:41:47.701Z,0.77
2022-11-19T10:44:43.792Z,0.90
2022-11-19T10:47:19.300Z,1.03
2022-11-19T10:49:53.032Z,0.60
2022-11-19T10:52:27.627Z,1.27
2022-11-19T10:54:59.281Z,1.20
2022-11-19T10:57:30.543Z,1.40
2022-11-19T11:00:01.035Z,1.00
2022-11-19T11:02:34.775Z,1.23
2022-11-19T11:05:06.992Z,1.30
2022-11-19T11:08:01.992Z,1.03
2022-11-19T11:10:42.959Z,1.20
2022-11-19T11:13:45.557Z,1.13
2022-11-19T11:16:18.098Z,0.80
2022-11-19T11:18:47.260Z,1.20
2022-11-19T11:21:34.159Z,2.07
2022-11-19T11:24:04.530Z,0.73
2022-11-19T11:26:34.585Z,1.07
2022-11-19T11:29:05.193Z,1.83
2022-11-19T11:31:40.489Z,1.30
2022-11-19T11:34:15.760Z,0.67
2022-11-19T11:36:44.679Z,0.53
2022-11-19T11:39:26.099Z,0.33
2022-11-19T11:42:05.512Z,0.60
2022-11-19T11:44:37.493Z,0.50
2022-11-19T11:47:14.105Z,0.70
2022-11-19T11:49:46.534Z,0.40
2022-11-19T11:52:21.204Z,0.60
2022-11-19T11:55:00.950Z,0.70
2022-11-19T11:57:30.596Z,1.10
2022-11-19T11:59:58.930Z,1.00
2022-11-19T12:02:33.557Z,1.00
2022-11-19T12:05:17.088Z,1.30
2022-11-19T12:07:59.198Z,1.40
2022-11-19T12:10:34.713Z,1.27
2022-11-19T12:13:37.698Z,1.27
2022-11-19T12:16:14.051Z,0.73
2022-11-19T12:18:53.328Z,1.10
2022-11-19T12:21:32.253Z,1.37
2022-11-19T12:24:14.783Z,1.13
2022-11-19T12:26:53.233Z,1.13
2022-11-19T12:29:31.426Z,1.17
2022-11-19T12:32:13.790Z,1.30
2022-11-19T12:35:09.921Z,1.30
2022-11-19T12:38:16.340Z,2.13
2022-11-19T12:40:54.006Z,1.10
2022-11-19T12:43:40.720Z,1.33
2022-11-19T12:46:17.539Z,0.90
2022-11-19T12:48:57.558Z,1.53
2022-11-19T12:51:38.428Z,1.33
2022-11-19T12:54:28.936Z,1.30
2022-11-19T12:57:22.725Z,0.60
2022-11-19T13:00:09.374Z,0.97
2022-11-19T13:02:41.959Z,0.97
2022-11-19T13:05:15.670Z,1.17
2022-11-19T13:07:50.230Z,1.20
2022-11-19T13:10:23.600Z,1.67
2022-11-19T13:12:54.009Z,1.60
2022-11-19T13:15:27.438Z,1.00
2022-11-19T13:17:57.538Z,0.80
2022-11-19T13:20:29.104Z,1.20
2022-11-19T13:23:03.974Z,1.07
2022-11-19T13:25:36.002Z,1.37
2022-11-19T13:28:08.359Z,0.73
2022-11-19T13:30:36.581Z,0.77
2022-11-19T13:33:13.637Z,0.50
2022-11-19T13:35:49.518Z,0.70
2022-11-19T13:38:24.423Z,0.80
2022-11-19T13:40:56.336Z,0.80
2022-11-19T13:43:42.018Z,0.80
2022-11-19T13:46:33.069Z,0.80
2022-11-19T13:49:04.887Z,1.10
2022-11-19T13:51:38.933Z,0.73
2022-11-19T13:54:10.016Z,1.50
2022-11-19T13:56:44.774Z,1.77
2022-11-19T13:59:28.783Z,0.87
2022-11-19T14:02:10.374Z,0.67
2022-11-19T14:05:00.337Z,0.80
2022-11-19T14:07:53.251Z,0.67
2022-11-19T14:10:31.830Z,0.70
2022-11-19T14:13:29.920Z,1.13
2022-11-19T14:16:33.756Z,1.13
2022-11-19T14:19:23.757Z,0.97
2022-11-19T14:22:12.072Z,1.07
2022-11-19T14:25:21.339Z,1.40
2022-11-19T14:27:50.382Z,0.87
2022-11-19T14:30:20.781Z,0.80
2022-11-19T14:32:51.645Z,0.67
2022-11-19T14:35:37.025Z,0.73
2022-11-19T14:38:35.026Z,1.00
2022-11-19T14:41:19.280Z,0.70
2022-11-19T14:44:12.920Z,0.70
2022-11-19T14:46:43.464Z,1.27
2022-11-19T14:49:27.818Z,1.10
2022-11-19T14:51:57.739Z,0.53
2022-11-19T14:54:32.235Z,0.70
2022-11-19T14:57:07.170Z,0.90
2022-11-19T14:59:38.316Z,1.07
2022-11-19T15:02:26.245Z,1.20
2022-11-19T15:05:02.785Z,0.90
2022-11-19T15:07:41.302Z,1.27
2022-11-19T15:10:30.124Z,0.93
2022-11-19T15:13:28.287Z,1.17
2022-11-19T15:16:03.369Z,0.97
2022-11-19T15:19:12.842Z,1.40
2022-11-19T15:22:26.416Z,1.17
2022-11-19T15:25:05.149Z,1.00
2022-11-19T15:27:48.328Z,1.83
2022-11-19T15:30:20.596Z,2.00
2022-11-19T15:33:13.542Z,2.80
2022-11-19T15:36:06.502Z,3.23
2022-11-19T15:38:39.737Z,2.70
2022-11-19T15:41:16.668Z,2.57
2022-11-19T15:43:47.942Z,2.17
2022-11-19T15:46:20.689Z,2.60
2022-11-19T15:48:58.663Z,2.60
2022-11-19T15:51:26.470Z,2.97
2022-11-19T15:54:01.555Z,2.17
2022-11-19T15:56:32.713Z,2.37
2022-11-19T15:59:02.258Z,2.37
2022-11-19T16:01:32.943Z,2.00
2022-11-19T16:04:07.460Z,2.47
2022-11-19T16:06:39.581Z,2.20
2022-11-19T16:09:08.626Z,2.10
2022-11-19T16:11:56.788Z,1.60
2022-11-19T16:14:43.969Z,2.10
2022-11-19T16:17:30.969Z,1.40
2022-11-19T16:20:08.695Z,1.67
2022-11-19T16:22:40.878Z,1.90
2022-11-19T16:25:13.552Z,1.90
2022-11-19T16:27:43.667Z,2.40
2022-11-19T16:30:19.832Z,2.47
2022-11-19T16:32:48.681Z,2.10
2022-11-19T16:35:24.663Z,3.23
2022-11-19T16:37:53.463Z,2.33
2022-11-19T16:40:21.841Z,2.10
2022-11-19T16:42:52.815Z,2.37
2022-11-19T16:45:23.707Z,2.03
2022-11-19T16:47:53.761Z,1.40
2022-11-19T16:50:32.568Z,1.07
2022-11-19T16:53:01.226Z,1.57
2022-11-19T16:55:53.454Z,1.37
2022-11-19T16:58:26.301Z,1.80
2022-11-19T17:00:59.364Z,1.13
2022-11-19T17:03:36.765Z,1.23
2022-11-19T17:06:07.386Z,1.33
2022-11-19T17:08:37.503Z,1.60
2022-11-19T17:11:36.949Z,1.27
2022-11-19T17:14:19.636Z,1.67
2022-11-19T17:16:53.328Z,1.80
2022-11-19T17:19:28.281Z,1.47
2022-11-19T17:22:00.937Z,1.80
2022-11-19T17:24:32.720Z,1.27
2022-11-19T17:27:01.091Z,2.27
2022-11-19T17:29:28.816Z,1.80
2022-11-19T17:31:57.298Z,2.00
2022-11-19T17:34:31.092Z,1.50
2022-11-19T17:37:00.607Z,1.40
2022-11-19T17:39:28.363Z,1.23
2022-11-19T17:42:15.123Z,2.33
2022-11-19T17:44:43.238Z,1.37
2022-11-19T17:47:21.860Z,1.60
2022-11-19T17:49:51.267Z,1.73
2022-11-19T17:52:24.410Z,1.63
2022-11-19T17:54:54.276Z,1.43
2022-11-19T17:57:22.114Z,3.03
2022-11-19T17:59:49.832Z,2.40
2022-11-19T18:02:19.809Z,2.63
2022-11-19T18:04:48.917Z,2.60
2022-11-19T18:07:16.776Z,2.37
2022-11-19T18:09:45.895Z,2.07
2022-11-19T18:12:16.023Z,1.47
2022-11-19T18:14:44.461Z,1.57
2022-11-19T18:17:13.048Z,1.90
2022-11-19T18:19:41.001Z,1.50
2022-11-19T18:22:17.927Z,2.00
2022-11-19T18:24:47.839Z,1.37
2022-11-19T18:27:15.922Z,1.67
2022-11-19T18:29:43.590Z,3.00
2022-11-19T18:32:11.838Z,2.60
2022-11-19T18:34:39.527Z,3.20
2022-11-19T18:37:07.244Z,2.60
2022-11-19T18:39:34.903Z,2.63
2022-11-19T18:42:04.359Z,2.40
2022-11-19T18:44:33.780Z,1.53
2022-11-19T18:47:02.663Z,2.37
2022-11-19T18:49:30.597Z,3.00
2022-11-19T18:51:58.276Z,2.13
2022-11-19T18:54:26.088Z,2.53
2022-11-19T18:56:54.075Z,2.43
2022-11-19T18:59:23.591Z,2.03
2022-11-19T19:01:55.557Z,1.70
2022-11-19T19:04:24.194Z,2.50
2022-11-19T19:06:52.201Z,1.80
2022-11-19T19:09:21.096Z,1.57
2022-11-19T19:12:12.614Z,1.80
2022-11-19T19:14:42.889Z,1.97
2022-11-19T19:17:11.100Z,1.63
2022-11-19T19:19:39.014Z,1.77
2022-11-19T19:22:07.855Z,1.37
2022-11-19T19:24:36.076Z,1.57
2022-11-19T19:27:04.187Z,2.20
2022-11-19T19:29:32.108Z,2.03
2022-11-19T19:32:01.336Z,1.80
2022-11-19T19:34:30.004Z,1.90
2022-11-19T19:36:57.839Z,1.60
2022-11-19T19:39:26.159Z,1.90
2022-11-19T19:41:53.961Z,1.93
2022-11-19T19:44:21.622Z,2.47
2022-11-19T19:46:49.765Z,2.10
2022-11-19T19:49:19.470Z,2.27
2022-11-19T19:51:48.455Z,2.20
2022-11-19T19:54:16.257Z,2.10
2022-11-19T19:56:43.985Z,2.57
2022-11-19T19:59:13.829Z,2.23
2022-11-19T20:01:44.524Z,2.43
2022-11-19T20:04:12.646Z,2.67
2022-11-19T20:06:46.088Z,3.00
2022-11-19T20:09:14.087Z,2.80
2022-11-19T20:11:41.764Z,2.63
2022-11-19T20:14:11.291Z,2.60
2022-11-19T20:16:41.428Z,3.30
2022-11-19T20:19:13.863Z,3.60
2022-11-19T20:21:43.293Z,3.70
2022-11-19T20:24:13.320Z,3.20
2022-11-19T20:26:42.029Z,3.30
2022-11-19T20:29:12.354Z,3.17
2022-11-19T20:31:40.711Z,3.90
2022-11-19T20:34:08.786Z,3.30
2022-11-19T20:36:37.118Z,2.90
2022-11-19T20:39:06.996Z,4.33
2022-11-19T20:41:53.141Z,3.87
2022-11-19T20:44:21.635Z,3.40
2022-11-19T20:46:51.665Z,3.80
2022-11-19T20:49:21.481Z,3.77
2022-11-19T20:51:49.970Z,4.13
2022-11-19T20:54:19.958Z,4.10
2022-11-19T20:56:48.748Z,4.53
2022-11-19T20:59:16.532Z,4.47
2022-11-19T21:01:44.252Z,4.93
2022-11-19T21:04:12.836Z,4.47
2022-11-19T21:06:40.602Z,4.97
2022-11-19T21:09:08.879Z,4.50
2022-11-19T21:11:37.898Z,5.70
2022-11-19T21:14:06.098Z,4.60
2022-11-19T21:16:33.868Z,4.63
2022-11-19T21:19:01.872Z,3.50
2022-11-19T21:21:29.639Z,4.10
2022-11-19T21:23:57.532Z,3.73
2022-11-19T21:26:26.426Z,4.00
2022-11-19T21:28:56.981Z,3.20
2022-11-19T21:31:37.863Z,3.77
2022-11-19T21:34:06.329Z,3.87
2022-11-19T21:36:34.249Z,4.20
2022-11-19T21:39:02.256Z,3.93
2022-11-19T21:41:29.905Z,3.73
2022-11-19T21:43:59.107Z,3.30
2022-11-19T21:46:26.862Z,3.40
2022-11-19T21:48:54.879Z,4.77
2022-11-19T21:51:24.996Z,4.07
2022-11-19T21:53:55.404Z,3.80
2022-11-19T21:56:23.173Z,3.80
2022-11-19T21:58:50.916Z,3.70
2022-11-19T22:01:20.067Z,3.70
2022-11-19T22:03:48.025Z,3.57
2022-11-19T22:06:15.987Z,2.30
2022-11-19T22:08:44.372Z,3.00
2022-11-19T22:11:32.041Z,2.80
2022-11-19T22:14:02.050Z,2.90
2022-11-19T22:16:33.086Z,2.77
2022-11-19T22:19:00.942Z,2.77
2022-11-19T22:21:29.968Z,2.70
2022-11-19T22:23:57.719Z,2.80
2022-11-19T22:26:26.182Z,2.97
2022-11-19T22:28:53.843Z,2.90
2022-11-19T22:31:21.653Z,2.70
2022-11-19T22:33:51.999Z,2.70
2022-11-19T22:36:21.532Z,2.63
2022-11-19T22:38:49.324Z,2.60
2022-11-19T22:41:19.106Z,2.23
2022-11-19T22:43:47.095Z,2.47
2022-11-19T22:46:15.793Z,1.90
2022-11-19T22:48:43.482Z,2.60
2022-11-19T22:51:14.880Z,2.57
2022-11-19T22:53:43.097Z,2.27
2022-11-19T22:56:12.487Z,2.27
2022-11-19T22:58:40.511Z,2.87
2022-11-19T23:01:13.841Z,2.33
2022-11-19T23:03:41.519Z,2.60
2022-11-19T23:06:09.233Z,2.53
2022-11-19T23:08:39.011Z,2.87
2022-11-19T23:11:08.150Z,2.27
2022-11-19T23:13:39.022Z,2.20
2022-11-19T23:16:09.163Z,2.60
2022-11-19T23:18:39.108Z,3.83
2022-11-19T23:21:08.811Z,3.17
2022-11-19T23:23:36.589Z,2.40
2022-11-19T23:26:07.677Z,2.53
2022-11-19T23:28:37.658Z,2.43
2022-11-19T23:31:05.866Z,2.27
2022-11-19T23:33:33.832Z,2.60
2022-11-19T23:36:06.331Z,2.40
2022-11-19T23:38:35.762Z,1.80
2022-11-19T23:41:06.610Z,2.30
2022-11-19T23:43:35.351Z,2.30
2022-11-19T23:46:10.069Z,1.83
2022-11-19T23:48:38.850Z,1.83
2022-11-19T23:51:09.001Z,2.70
2022-11-19T23:53:37.075Z,2.13
2022-11-19T23:56:07.080Z,1.93
2022-11-19T23:58:35.613Z,1.93
